createdAt,value
2023-05-16T00:00:35.211Z,13.28
2023-05-16T00:03:03.133Z,13.34
2023-05-16T00:05:29.862Z,13.39
2023-05-16T00:07:56.340Z,13.39
2023-05-16T00:10:22.824Z,13.26
2023-05-16T00:12:51.782Z,13.37
2023-05-16T00:15:20.432Z,13.35
2023-05-16T00:17:47.143Z,13.35
2023-05-16T00:20:14.257Z,13.31
2023-05-16T00:22:42.045Z,13.34
2023-05-16T00:25:09.604Z,13.40
2023-05-16T00:27:36.474Z,13.43
2023-05-16T00:30:03.984Z,13.46
2023-05-16T00:32:30.616Z,13.43
2023-05-16T00:34:57.039Z,13.44
2023-05-16T00:37:23.640Z,13.43
2023-05-16T00:39:50.052Z,13.48
2023-05-16T00:42:19.250Z,13.39
2023-05-16T00:44:46.165Z,13.38
2023-05-16T00:47:12.649Z,13.34
2023-05-16T00:49:39.258Z,13.26
2023-05-16T00:52:06.121Z,13.21
2023-05-16T00:54:33.862Z,13.14
2023-05-16T00:57:00.665Z,13.09
2023-05-16T00:59:27.455Z,13.06
2023-05-16T01:01:54.107Z,12.97
2023-05-16T01:04:20.911Z,12.95
2023-05-16T01:06:47.409Z,13.01
2023-05-16T01:09:14.578Z,13.00
2023-05-16T01:11:53.229Z,12.96
2023-05-16T01:14:33.825Z,12.93
2023-05-16T01:17:23.523Z,12.95
2023-05-16T01:19:53.009Z,12.90
2023-05-16T01:26:25.083Z,12.86
2023-05-16T01:28:52.550Z,12.79
2023-05-16T01:31:20.184Z,12.88
2023-05-16T01:33:46.947Z,12.86
2023-05-16T01:36:26.068Z,12.88
2023-05-16T01:39:04.609Z,12.88
2023-05-16T01:41:39.064Z,12.75
2023-05-16T01:44:13.430Z,12.76
2023-05-16T01:46:45.917Z,12.76
2023-05-16T01:49:22.501Z,12.77
2023-05-16T01:51:54.043Z,12.70
2023-05-16T01:54:24.702Z,12.73
2023-05-16T01:56:55.937Z,12.72
2023-05-16T01:59:24.105Z,12.74
2023-05-16T02:01:53.786Z,12.73
2023-05-16T02:04:20.290Z,12.73
2023-05-16T02:06:46.871Z,12.66
2023-05-16T02:09:13.270Z,12.64
2023-05-16T02:11:39.688Z,12.55
2023-05-16T02:14:06.221Z,12.52
2023-05-16T02:16:32.728Z,12.50
2023-05-16T02:18:59.239Z,12.49
2023-05-16T02:21:25.812Z,12.52
2023-05-16T02:23:52.190Z,12.51
2023-05-16T02:26:19.187Z,12.49
2023-05-16T02:28:45.956Z,12.42
2023-05-16T02:31:12.412Z,12.40
2023-05-16T02:33:38.806Z,12.27
2023-05-16T02:36:05.420Z,12.26
2023-05-16T02:38:31.854Z,12.22
2023-05-16T02:40:58.280Z,12.23
2023-05-16T02:43:24.714Z,12.16
2023-05-16T02:45:51.237Z,12.14
2023-05-16T02:48:17.679Z,12.11
2023-05-16T02:50:44.231Z,12.10
2023-05-16T02:53:10.721Z,12.02
2023-05-16T02:55:37.248Z,11.99
2023-05-16T02:58:03.950Z,11.99
2023-05-16T03:00:30.497Z,12.04
2023-05-16T03:02:57.024Z,12.00
2023-05-16T03:05:24.281Z,12.06
2023-05-16T03:07:52.696Z,12.07
2023-05-16T03:10:19.126Z,12.07
2023-05-16T03:12:46.085Z,11.98
2023-05-16T03:15:12.532Z,12.03
2023-05-16T03:17:38.974Z,12.02
2023-05-16T03:20:08.917Z,11.99
2023-05-16T03:22:35.429Z,12.00
2023-05-16T03:25:02.772Z,12.03
2023-05-16T03:27:29.475Z,12.04
2023-05-16T03:29:55.899Z,12.13
2023-05-16T03:32:22.492Z,12.16
2023-05-16T03:34:48.934Z,12.18
2023-05-16T03:37:16.196Z,12.13
2023-05-16T03:39:42.638Z,12.14
2023-05-16T03:42:09.126Z,12.13
2023-05-16T03:44:35.693Z,12.09
2023-05-16T03:47:02.227Z,12.15
2023-05-16T03:49:28.603Z,12.15
2023-05-16T03:51:55.536Z,12.20
2023-05-16T03:54:22.432Z,12.08
2023-05-16T03:56:48.818Z,12.18
2023-05-16T03:59:15.323Z,12.18
2023-05-16T04:01:41.782Z,12.16
2023-05-16T04:04:08.338Z,12.18
2023-05-16T04:06:35.054Z,12.23
2023-05-16T04:09:01.578Z,12.22
2023-05-16T04:11:28.434Z,12.30
2023-05-16T04:13:54.902Z,12.35
2023-05-16T04:16:21.447Z,12.34
2023-05-16T04:18:47.966Z,12.40
2023-05-16T04:21:15.283Z,12.43
2023-05-16T04:23:42.088Z,12.33
2023-05-16T04:26:08.658Z,12.42
2023-05-16T04:28:35.896Z,12.39
2023-05-16T04:31:03.007Z,12.42
2023-05-16T04:33:29.531Z,12.41
2023-05-16T04:35:58.419Z,12.40
2023-05-16T04:38:24.918Z,12.41
2023-05-16T04:40:51.786Z,12.40
2023-05-16T04:43:19.027Z,12.38
2023-05-16T04:45:45.457Z,12.37
2023-05-16T04:48:12.158Z,12.38
2023-05-16T04:50:38.549Z,12.41
2023-05-16T04:53:05.021Z,12.43
2023-05-16T04:55:31.670Z,12.44
2023-05-16T04:57:58.228Z,12.39
2023-05-16T05:00:25.132Z,12.36
2023-05-16T05:02:51.612Z,12.41
2023-05-16T05:05:18.230Z,12.43
2023-05-16T05:07:44.662Z,12.43
2023-05-16T05:10:11.624Z,12.45
2023-05-16T05:12:38.101Z,12.52
2023-05-16T05:15:05.324Z,12.48
2023-05-16T05:17:31.994Z,12.48
2023-05-16T05:19:59.545Z,12.50
2023-05-16T05:22:27.713Z,12.52
2023-05-16T05:24:54.124Z,12.54
2023-05-16T05:27:20.648Z,12.61
2023-05-16T05:29:47.073Z,12.60
2023-05-16T05:32:13.925Z,12.59
2023-05-16T05:34:40.492Z,12.61
2023-05-16T05:37:06.998Z,12.64
2023-05-16T05:39:33.424Z,12.62
2023-05-16T05:41:59.895Z,12.69
2023-05-16T05:44:26.262Z,12.72
2023-05-16T05:46:52.718Z,12.79
2023-05-16T05:49:19.145Z,12.78
2023-05-16T05:51:45.696Z,12.79
2023-05-16T05:54:12.147Z,12.76
2023-05-16T05:56:38.560Z,12.81
2023-05-16T05:59:05.012Z,12.80
2023-05-16T06:01:31.436Z,12.82
2023-05-16T06:03:58.470Z,12.79
2023-05-16T06:06:26.182Z,12.83
2023-05-16T06:08:52.591Z,12.85
2023-05-16T06:11:19.043Z,12.87
2023-05-16T06:13:45.456Z,12.89
2023-05-16T06:16:11.887Z,13.02
2023-05-16T06:18:38.326Z,12.84
2023-05-16T06:21:05.876Z,12.95
2023-05-16T06:23:32.663Z,13.01
2023-05-16T06:25:59.190Z,13.05
2023-05-16T06:28:25.653Z,13.08
2023-05-16T06:30:52.196Z,13.06
2023-05-16T06:33:19.406Z,13.00
2023-05-16T06:35:45.970Z,13.05
2023-05-16T06:38:12.377Z,12.99
2023-05-16T06:40:38.780Z,13.01
2023-05-16T06:43:05.233Z,13.03
2023-05-16T06:45:34.436Z,13.08
2023-05-16T06:48:01.373Z,13.10
2023-05-16T06:50:27.986Z,13.08
2023-05-16T06:52:54.490Z,13.17
2023-05-16T06:55:21.060Z,13.21
2023-05-16T06:57:48.127Z,13.20
2023-05-16T07:00:15.165Z,13.30
2023-05-16T07:02:41.770Z,13.42
2023-05-16T07:05:08.644Z,13.46
2023-05-16T07:07:35.791Z,13.63
2023-05-16T07:10:03.153Z,13.68
2023-05-16T07:12:29.717Z,13.86
2023-05-16T07:14:56.189Z,13.89
2023-05-16T07:17:23.024Z,13.90
2023-05-16T07:19:50.511Z,13.99
2023-05-16T07:22:16.958Z,13.94
2023-05-16T07:24:43.448Z,13.97
2023-05-16T07:27:09.963Z,13.88
2023-05-16T07:29:37.348Z,13.93
2023-05-16T07:32:04.187Z,13.91
2023-05-16T07:34:30.660Z,13.96
2023-05-16T07:36:57.135Z,13.93
2023-05-16T07:39:23.632Z,13.99
2023-05-16T07:41:50.071Z,14.05
2023-05-16T07:44:16.525Z,14.32
2023-05-16T07:46:44.988Z,14.51
2023-05-16T07:49:11.832Z,14.54
2023-05-16T07:51:38.340Z,14.63
2023-05-16T07:54:04.981Z,14.65
2023-05-16T07:56:33.580Z,14.63
2023-05-16T07:59:00.257Z,14.60
2023-05-16T08:01:26.770Z,14.60
2023-05-16T08:03:53.722Z,14.60
2023-05-16T08:06:20.511Z,14.63
2023-05-16T08:08:46.984Z,14.55
2023-05-16T08:11:13.443Z,14.69
2023-05-16T08:13:39.878Z,14.76
2023-05-16T08:16:06.795Z,14.88
2023-05-16T08:18:33.402Z,14.97
2023-05-16T08:21:00.221Z,15.05
2023-05-16T08:23:26.687Z,14.96
2023-05-16T08:25:54.684Z,14.89
2023-05-16T08:28:21.506Z,14.76
2023-05-16T08:30:48.240Z,14.63
2023-05-16T08:33:15.158Z,14.46
2023-05-16T08:35:45.042Z,14.28
2023-05-16T08:38:11.564Z,14.16
2023-05-16T08:40:38.298Z,14.05
2023-05-16T08:43:05.358Z,14.08
2023-05-16T08:45:32.168Z,14.08
2023-05-16T08:48:01.411Z,13.95
2023-05-16T08:50:32.355Z,14.06
2023-05-16T08:53:06.265Z,14.26
2023-05-16T08:55:33.242Z,14.49
2023-05-16T08:58:00.915Z,14.73
2023-05-16T09:00:28.209Z,14.82
2023-05-16T09:02:54.911Z,14.80
2023-05-16T09:05:22.785Z,14.84
2023-05-16T09:07:49.846Z,14.80
2023-05-16T09:10:16.530Z,14.77
2023-05-16T09:12:43.762Z,14.66
2023-05-16T09:15:11.422Z,14.66
2023-05-16T09:17:43.329Z,14.64
2023-05-16T09:20:15.162Z,14.63
2023-05-16T09:22:52.665Z,14.58
2023-05-16T09:25:29.457Z,14.68
2023-05-16T09:27:59.170Z,14.70
2023-05-16T09:30:34.263Z,14.71
2023-05-16T09:33:01.244Z,14.68
2023-05-16T09:37:57.378Z,14.75
2023-05-16T09:40:24.472Z,14.76
2023-05-16T09:43:06.284Z,14.74
2023-05-16T09:45:34.349Z,14.70
2023-05-16T09:48:04.982Z,14.66
2023-05-16T09:50:33.602Z,14.64
2023-05-16T09:53:00.294Z,14.61
2023-05-16T09:55:26.971Z,14.70
2023-05-16T09:57:53.651Z,14.80
2023-05-16T10:00:20.339Z,14.88
2023-05-16T10:02:48.452Z,14.98
2023-05-16T10:05:16.121Z,15.04
2023-05-16T10:07:43.566Z,14.91
2023-05-16T10:10:11.736Z,14.90
2023-05-16T10:12:38.290Z,14.99
2023-05-16T10:15:08.620Z,15.12
2023-05-16T10:17:39.579Z,15.14
2023-05-16T10:20:08.141Z,15.37
2023-05-16T10:22:35.884Z,15.51
2023-05-16T10:25:17.923Z,15.42
2023-05-16T10:27:44.927Z,15.44
2023-05-16T10:30:11.818Z,15.42
2023-05-16T10:32:41.963Z,15.40
2023-05-16T10:35:10.632Z,15.18
2023-05-16T10:37:38.812Z,15.19
2023-05-16T10:40:07.753Z,15.02
2023-05-16T10:42:34.771Z,14.96
2023-05-16T10:45:17.970Z,14.99
2023-05-16T10:47:59.124Z,15.06
2023-05-16T10:50:42.911Z,15.23
2023-05-16T10:53:17.220Z,15.28
2023-05-16T10:55:59.574Z,15.38
2023-05-16T10:58:38.532Z,15.35
2023-05-16T11:01:34.324Z,15.54
2023-05-16T11:04:10.088Z,15.64
2023-05-16T11:06:42.584Z,15.86
2023-05-16T11:09:13.372Z,16.00
2023-05-16T11:11:45.617Z,16.10
2023-05-16T11:14:28.903Z,16.01
2023-05-16T11:17:16.073Z,15.98
2023-05-16T11:19:59.659Z,15.92
2023-05-16T11:22:30.433Z,15.66
2023-05-16T11:25:01.343Z,15.63
2023-05-16T11:27:36.200Z,15.42
2023-05-16T11:30:05.722Z,15.47
2023-05-16T11:32:35.599Z,15.57
2023-05-16T11:35:02.462Z,15.67
2023-05-16T11:37:29.675Z,15.87
2023-05-16T11:40:01.211Z,16.16
2023-05-16T11:42:34.328Z,16.46
2023-05-16T11:45:14.348Z,16.69
2023-05-16T11:47:42.117Z,16.74
2023-05-16T11:50:16.941Z,16.60
2023-05-16T11:52:44.137Z,16.39
2023-05-16T11:55:11.609Z,16.29
2023-05-16T11:57:39.035Z,15.93
2023-05-16T12:00:14.978Z,15.91
2023-05-16T12:02:41.521Z,15.72
2023-05-16T12:05:10.022Z,15.75
2023-05-16T12:07:40.804Z,15.90
2023-05-16T12:10:12.804Z,15.96
2023-05-16T12:12:46.356Z,16.02
2023-05-16T12:15:13.875Z,16.13
2023-05-16T12:17:41.553Z,16.23
2023-05-16T12:20:14.713Z,16.80
2023-05-16T12:22:42.406Z,17.60
2023-05-16T12:25:28.780Z,18.00
2023-05-16T12:27:58.131Z,18.26
2023-05-16T12:30:26.778Z,18.58
2023-05-16T12:33:22.815Z,18.62
2023-05-16T12:35:51.871Z,19.00
2023-05-16T12:38:20.078Z,19.44
2023-05-16T12:40:47.408Z,19.44
2023-05-16T12:43:21.646Z,19.54
2023-05-16T12:45:53.197Z,19.66
2023-05-16T12:48:20.037Z,19.64
2023-05-16T12:50:46.675Z,19.60
2023-05-16T12:53:14.565Z,19.38
2023-05-16T12:55:42.539Z,19.08
2023-05-16T12:58:10.669Z,18.93
2023-05-16T13:00:37.722Z,18.69
2023-05-16T13:03:05.330Z,18.52
2023-05-16T13:05:31.997Z,18.28
2023-05-16T13:07:58.498Z,18.27
2023-05-16T13:10:26.111Z,18.64
2023-05-16T13:12:54.040Z,19.25
2023-05-16T13:15:20.997Z,19.83
2023-05-16T13:17:48.556Z,20.33
2023-05-16T13:20:15.616Z,20.60
2023-05-16T13:22:44.681Z,20.73
2023-05-16T13:25:11.763Z,20.79
2023-05-16T13:31:25.815Z,20.92
2023-05-16T13:33:52.698Z,20.54
2023-05-16T13:36:19.139Z,20.52
2023-05-16T13:38:45.638Z,20.64
2023-05-16T13:41:12.170Z,20.98
2023-05-16T13:43:38.633Z,21.14
2023-05-16T13:46:05.436Z,21.23
2023-05-16T13:48:32.038Z,21.34
2023-05-16T13:50:58.619Z,21.19
2023-05-16T13:53:25.130Z,20.85
2023-05-16T13:55:51.638Z,20.22
2023-05-16T13:58:18.185Z,19.92
2023-05-16T14:00:46.211Z,19.73
2023-05-16T14:03:13.023Z,19.61
2023-05-16T14:05:39.789Z,19.34
2023-05-16T14:08:06.747Z,19.19
2023-05-16T14:10:33.244Z,19.07
2023-05-16T14:12:59.751Z,19.27
2023-05-16T14:15:26.633Z,19.39
2023-05-16T14:17:53.451Z,19.51
2023-05-16T14:20:20.180Z,19.60
2023-05-16T14:22:46.649Z,19.46
2023-05-16T14:25:13.240Z,19.65
2023-05-16T14:27:39.707Z,19.78
2023-05-16T14:30:06.933Z,19.86
2023-05-16T14:32:33.875Z,20.02
2023-05-16T14:35:00.670Z,19.79
2023-05-16T14:37:27.373Z,19.76
2023-05-16T14:39:55.125Z,19.73
2023-05-16T14:42:21.719Z,19.84
2023-05-16T14:44:48.244Z,19.87
2023-05-16T14:47:14.718Z,19.84
2023-05-16T14:49:41.542Z,19.79
2023-05-16T14:52:08.178Z,19.71
2023-05-16T14:54:34.689Z,19.70
2023-05-16T14:57:01.743Z,19.71
2023-05-16T14:59:28.731Z,19.72
2023-05-16T15:01:55.458Z,19.52
2023-05-16T15:04:21.962Z,19.54
2023-05-16T15:06:48.659Z,19.52
2023-05-16T15:09:15.198Z,19.51
2023-05-16T15:11:41.724Z,19.56
2023-05-16T15:14:08.243Z,19.52
2023-05-16T15:16:34.749Z,19.45
2023-05-16T15:19:01.608Z,19.45
2023-05-16T15:21:28.175Z,19.30
2023-05-16T15:23:55.560Z,19.46
2023-05-16T15:26:22.850Z,19.53
2023-05-16T15:28:49.409Z,19.52
2023-05-16T15:31:16.638Z,19.42
2023-05-16T15:33:48.122Z,19.57
2023-05-16T15:36:14.965Z,19.42
2023-05-16T15:38:44.272Z,19.31
2023-05-16T15:41:26.348Z,19.21
2023-05-16T15:43:59.297Z,19.00
2023-05-16T15:46:25.807Z,18.97
2023-05-16T15:48:52.455Z,18.99
2023-05-16T15:51:19.292Z,18.72
2023-05-16T15:53:47.786Z,18.67
2023-05-16T15:56:14.233Z,18.53
2023-05-16T15:58:40.742Z,18.54
2023-05-16T16:01:08.470Z,18.53
2023-05-16T16:03:35.146Z,18.49
2023-05-16T16:06:01.984Z,18.40
2023-05-16T16:08:28.609Z,18.44
2023-05-16T16:10:55.335Z,18.37
2023-05-16T16:13:22.918Z,18.24
2023-05-16T16:15:49.790Z,18.15
2023-05-16T16:18:16.613Z,18.17
2023-05-16T16:20:43.374Z,18.14
2023-05-16T16:23:10.166Z,18.00
2023-05-16T16:25:36.833Z,17.94
2023-05-16T16:28:03.536Z,17.92
2023-05-16T16:30:30.435Z,17.84
2023-05-16T16:32:56.897Z,17.79
2023-05-16T16:35:26.312Z,17.75
2023-05-16T16:38:05.576Z,17.70
2023-05-16T16:40:34.617Z,17.76
2023-05-16T16:43:01.562Z,17.73
2023-05-16T16:45:29.683Z,17.73
2023-05-16T16:47:58.184Z,17.79
2023-05-16T16:50:25.702Z,17.80
2023-05-16T16:52:55.206Z,17.67
2023-05-16T16:55:22.634Z,17.58
2023-05-16T16:57:52.431Z,17.60
2023-05-16T17:00:20.951Z,17.56
2023-05-16T17:02:49.049Z,17.51
2023-05-16T17:05:15.997Z,17.46
2023-05-16T17:07:44.343Z,17.51
2023-05-16T17:10:12.031Z,17.44
2023-05-16T17:12:47.305Z,17.46
2023-05-16T17:15:15.167Z,17.38
2023-05-16T17:17:42.881Z,17.34
2023-05-16T17:20:13.010Z,17.25
2023-05-16T17:22:41.193Z,17.19
2023-05-16T17:25:11.737Z,17.09
2023-05-16T17:27:39.294Z,16.91
2023-05-16T17:30:08.396Z,16.80
2023-05-16T17:32:36.190Z,16.72
2023-05-16T17:35:04.470Z,16.53
2023-05-16T17:37:32.664Z,16.51
2023-05-16T17:40:00.768Z,16.50
2023-05-16T17:42:28.851Z,16.27
2023-05-16T17:44:56.752Z,16.19
2023-05-16T17:47:24.747Z,16.08
2023-05-16T17:49:52.479Z,16.03
2023-05-16T17:52:22.130Z,15.94
2023-05-16T17:54:49.957Z,15.88
2023-05-16T17:57:17.898Z,15.83
2023-05-16T17:59:44.982Z,15.80
2023-05-16T18:02:15.261Z,15.82
2023-05-16T18:04:42.799Z,15.76
2023-05-16T18:07:10.724Z,15.75
2023-05-16T18:09:37.714Z,15.68
2023-05-16T18:12:05.285Z,15.63
2023-05-16T18:14:33.041Z,15.55
2023-05-16T18:16:59.926Z,15.31
2023-05-16T18:19:26.829Z,15.40
2023-05-16T18:21:53.358Z,15.27
2023-05-16T18:24:20.062Z,15.26
2023-05-16T18:26:49.472Z,15.17
2023-05-16T18:29:16.315Z,15.08
2023-05-16T18:31:43.136Z,14.98
2023-05-16T18:34:10.383Z,14.90
2023-05-16T18:36:37.116Z,14.89
2023-05-16T18:39:04.007Z,14.86
2023-05-16T18:41:30.855Z,14.77
2023-05-16T18:43:57.591Z,14.64
2023-05-16T18:46:24.371Z,14.54
2023-05-16T18:48:51.142Z,14.59
2023-05-16T18:51:17.753Z,14.52
2023-05-16T18:53:47.064Z,14.52
2023-05-16T18:56:13.567Z,14.42
2023-05-16T18:58:40.183Z,14.41
2023-05-16T19:01:06.724Z,14.34
2023-05-16T19:03:33.443Z,14.26
2023-05-16T19:06:00.066Z,14.21
2023-05-16T19:08:31.262Z,14.20
2023-05-16T19:11:03.409Z,14.07
2023-05-16T19:13:32.141Z,14.04
2023-05-16T19:15:58.599Z,13.98
2023-05-16T19:18:25.528Z,13.96
2023-05-16T19:20:52.471Z,13.77
2023-05-16T19:23:19.312Z,13.82
2023-05-16T19:25:49.023Z,13.84
2023-05-16T19:28:18.507Z,13.71
2023-05-16T19:30:45.171Z,13.62
2023-05-16T19:33:11.802Z,13.64
2023-05-16T19:35:38.544Z,13.61
2023-05-16T19:38:05.356Z,13.58
2023-05-16T19:40:33.867Z,13.47
2023-05-16T19:43:00.836Z,13.37
2023-05-16T19:45:27.518Z,13.40
2023-05-16T19:47:54.285Z,13.30
2023-05-16T19:50:21.681Z,13.26
2023-05-16T19:52:48.291Z,13.24
2023-05-16T19:55:14.879Z,13.26
2023-05-16T19:57:41.427Z,13.19
2023-05-16T20:00:09.597Z,13.12
2023-05-16T20:02:36.299Z,13.10
2023-05-16T20:05:04.383Z,13.04
2023-05-16T20:07:31.055Z,12.98
2023-05-16T20:09:57.575Z,12.97
2023-05-16T20:12:24.059Z,12.87
2023-05-16T20:14:51.710Z,12.84
2023-05-16T20:17:21.113Z,12.81
2023-05-16T20:19:47.799Z,12.75
2023-05-16T20:22:14.418Z,12.70
2023-05-16T20:24:41.145Z,12.69
2023-05-16T20:27:07.740Z,12.66
2023-05-16T20:29:34.274Z,12.67
2023-05-16T20:32:00.945Z,12.55
2023-05-16T20:34:27.981Z,12.53
2023-05-16T20:36:54.512Z,12.51
2023-05-16T20:39:21.129Z,12.48
2023-05-16T20:41:47.674Z,12.46
2023-05-16T20:44:15.445Z,12.41
2023-05-16T20:46:43.091Z,12.40
2023-05-16T20:49:09.757Z,12.39
2023-05-16T20:51:36.364Z,12.34
2023-05-16T20:54:03.014Z,12.27
2023-05-16T20:56:29.587Z,12.26
2023-05-16T20:58:56.180Z,12.25
2023-05-16T21:01:24.856Z,12.21
2023-05-16T21:03:51.517Z,12.16
2023-05-16T21:06:18.076Z,12.00
2023-05-16T21:08:44.629Z,12.02
2023-05-16T21:11:11.240Z,11.93
2023-05-16T21:13:37.905Z,11.90
2023-05-16T21:16:04.730Z,11.89
2023-05-16T21:18:32.120Z,11.85
2023-05-16T21:20:58.794Z,11.86
2023-05-16T21:23:25.414Z,11.73
2023-05-16T21:25:52.020Z,11.75
2023-05-16T21:28:18.628Z,11.78
2023-05-16T21:30:45.262Z,11.78
2023-05-16T21:33:11.966Z,11.76
2023-05-16T21:35:38.592Z,11.74
2023-05-16T21:38:05.190Z,11.76
2023-05-16T21:40:31.667Z,11.64
2023-05-16T21:42:58.385Z,11.65
2023-05-16T21:45:24.923Z,11.66
2023-05-16T21:47:51.616Z,11.63
2023-05-16T21:50:18.386Z,11.61
2023-05-16T21:52:45.090Z,11.59
2023-05-16T21:55:11.872Z,11.57
2023-05-16T21:57:38.551Z,11.56
2023-05-16T22:00:09.404Z,11.57
2023-05-16T22:02:36.891Z,11.58
2023-05-16T22:05:04.300Z,11.51
2023-05-16T22:07:31.727Z,11.55
2023-05-16T22:10:02.236Z,11.45
2023-05-16T22:12:28.908Z,11.48
2023-05-16T22:14:55.669Z,11.40
2023-05-16T22:17:22.273Z,11.40
2023-05-16T22:19:49.131Z,11.33
2023-05-16T22:22:16.228Z,11.29
2023-05-16T22:24:46.122Z,11.31
2023-05-16T22:27:12.727Z,11.23
2023-05-16T22:29:39.304Z,11.25
2023-05-16T22:32:09.736Z,11.19
2023-05-16T22:34:40.241Z,11.20
2023-05-16T22:37:08.106Z,11.20
2023-05-16T22:39:35.025Z,11.15
2023-05-16T22:42:01.892Z,11.12
2023-05-16T22:44:28.712Z,11.11
2023-05-16T22:46:55.279Z,11.03
2023-05-16T22:49:21.764Z,11.07
2023-05-16T22:51:51.290Z,10.95
2023-05-16T22:54:17.937Z,10.89
2023-05-16T22:56:44.539Z,10.75
2023-05-16T22:59:11.097Z,10.63
2023-05-16T23:01:37.756Z,10.59
2023-05-16T23:04:04.730Z,10.48
2023-05-16T23:06:32.564Z,10.34
2023-05-16T23:09:04.620Z,10.21
2023-05-16T23:11:32.360Z,10.14
2023-05-16T23:13:58.891Z,10.04
2023-05-16T23:16:25.457Z,9.91
2023-05-16T23:18:52.099Z,9.85
2023-05-16T23:21:18.691Z,9.72
2023-05-16T23:23:45.255Z,9.78
2023-05-16T23:26:11.833Z,9.63
2023-05-16T23:28:38.355Z,9.62
2023-05-16T23:31:04.943Z,9.51
2023-05-16T23:33:31.601Z,9.59
2023-05-16T23:35:58.136Z,9.58
2023-05-16T23:38:25.719Z,9.58
2023-05-16T23:40:52.212Z,9.56
2023-05-16T23:43:18.822Z,9.53
2023-05-16T23:45:45.815Z,9.45
2023-05-16T23:48:12.572Z,9.25
2023-05-16T23:50:39.164Z,9.09
2023-05-16T23:53:05.869Z,9.18
2023-05-16T23:55:32.336Z,9.11
2023-05-16T23:57:59.055Z,9.13
